Map

Track Data

SID SEASON NUMBER BASIN SUBBASIN NAME ISO_TIME NATURE LAT LON WMO_WIND WMO_PRES WMO_AGENCY TRACK_TYPE DIST2LAND LANDFALL IFLAG USA_AGENCY USA_ATCF_ID USA_LAT USA_LON USA_RECORD USA_STATUS USA_WIND USA_PRES USA_SSHS USA_R34_NE USA_R34_SE USA_R34_SW USA_R34_NW USA_R50_NE USA_R50_SE USA_R50_SW USA_R50_NW USA_R64_NE USA_R64_SE USA_R64_SW USA_R64_NW USA_POCI USA_ROCI USA_RMW USA_EYE TOKYO_LAT TOKYO_LON TOKYO_GRADE TOKYO_WIND TOKYO_PRES TOKYO_R50_DIR TOKYO_R50_LONG TOKYO_R50_SHORT TOKYO_R30_DIR TOKYO_R30_LONG TOKYO_R30_SHORT TOKYO_LAND CMA_LAT CMA_LON CMA_CAT CMA_WIND CMA_PRES HKO_LAT HKO_LON HKO_CAT HKO_WIND HKO_PRES NEWDELHI_LAT NEWDELHI_LON NEWDELHI_GRADE NEWDELHI_WIND NEWDELHI_PRES NEWDELHI_CI NEWDELHI_DP NEWDELHI_POCI REUNION_LAT REUNION_LON REUNION_TYPE REUNION_WIND REUNION_PRES REUNION_TNUM REUNION_CI REUNION_RMW REUNION_R34_NE REUNION_R34_SE REUNION_R34_SW REUNION_R34_NW REUNION_R50_NE REUNION_R50_SE REUNION_R50_SW REUNION_R50_NW REUNION_R64_NE REUNION_R64_SE REUNION_R64_SW REUNION_R64_NW BOM_LAT BOM_LON BOM_TYPE BOM_WIND BOM_PRES BOM_TNUM BOM_CI BOM_RMW BOM_R34_NE BOM_R34_SE BOM_R34_SW BOM_R34_NW BOM_R50_NE BOM_R50_SE BOM_R50_SW BOM_R50_NW BOM_R64_NE BOM_R64_SE BOM_R64_SW BOM_R64_NW BOM_ROCI BOM_POCI BOM_EYE BOM_POS_METHOD BOM_PRES_METHOD NADI_LAT NADI_LON NADI_CAT NADI_WIND NADI_PRES WELLINGTON_LAT WELLINGTON_LON WELLINGTON_WIND WELLINGTON_PRES DS824_LAT DS824_LON DS824_STAGE DS824_WIND DS824_PRES TD9636_LAT TD9636_LON TD9636_STAGE TD9636_WIND TD9636_PRES TD9635_LAT TD9635_LON TD9635_WIND TD9635_PRES TD9635_ROCI NEUMANN_LAT NEUMANN_LON NEUMANN_CLASS NEUMANN_WIND NEUMANN_PRES MLC_LAT MLC_LON MLC_CLASS MLC_WIND MLC_PRES USA_GUST BOM_GUST BOM_GUST_PER REUNION_GUST REUNION_GUST_PER USA_SEAHGT USA_SEARAD_NE USA_SEARAD_SE USA_SEARAD_SW USA_SEARAD_NW STORM_SPEED STORM_DIR
2005060S12179 2005 19 SP MM RAE 2005-02-28 18:00:00 NR -11.8000 179.000 15 1004 nadi main 500 470 ______________ -1 -11.8000 179.000 -1 15 1004 15 103
2005060S12179 2005 19 SP MM RAE 2005-02-28 21:00:00 NR -11.9703 179.742 main 470 460 _______I______ -1 -11.9703 179.742 -1 15 1004 15 102
2005060S12179 2005 19 SP MM RAE 2005-03-01 00:00:00 NR -12.1000 180.500 15 1004 nadi main 463 463 ______________ -1 -12.1000 -179.500 -1 15 1004 15 97
2005060S12179 2005 19 SP MM RAE 2005-03-01 03:00:00 NR -12.1651 181.260 main 472 472 _______I______ -1 -12.1651 -178.740 -1 15 1003 14 94
2005060S12179 2005 19 SP MM RAE 2005-03-01 06:00:00 NR -12.2000 181.900 15 1003 nadi main 497 497 ______________ -1 -12.2000 -178.100 -1 15 1003 10 96
2005060S12179 2005 19 SP MM RAE 2005-03-01 09:00:00 NR -12.2647 182.310 main 507 507 _______I______ -1 -12.2647 -177.690 -1 15 1003 7 98
2005060S12179 2005 19 SP MM RAE 2005-03-01 12:00:00 NR -12.3000 182.600 15 1003 nadi main 516 485 ______________ -1 -12.3000 -177.400 -1 15 1003 6 89
2005060S12179 2005 19 SP MM RAE 2005-03-01 15:00:00 NR -12.2575 182.923 main 485 457 _______I______ -1 -12.2575 -177.077 -1 17 1002 6 80
2005060S12179 2005 19 SP MM RAE 2005-03-01 18:00:00 NR -12.2000 183.200 20 1002 nadi main 457 437 ______________ -1 -12.2000 -176.800 -1 20 1002 5 83
2005060S12179 2005 19 SP MM RAE 2005-03-01 21:00:00 NR -12.1999 183.392 main 437 416 _______I______ -1 -12.1999 -176.608 -1 20 1002 4 90
2005060S12179 2005 19 SP MM RAE 2005-03-02 00:00:00 NR -12.2000 183.600 20 1002 nadi main 416 386 ______________ -1 -12.2000 -176.400 -1 20 1002 5 85
2005060S12179 2005 19 SP MM RAE 2005-03-02 03:00:00 NR -12.1575 183.920 main 386 351 _______I______ -1 -12.1575 -176.080 -1 20 1001 7 82
2005060S12179 2005 19 SP MM RAE 2005-03-02 06:00:00 NR -12.1000 184.300 20 1000 nadi main 351 313 ______________ -1 -12.1000 -175.700 -1 20 1000 8 82
2005060S12179 2005 19 SP MM RAE 2005-03-02 09:00:00 NR -12.0500 184.700 main 319 283 _______I______ -1 -12.0500 -175.300 -1 20 1000 8 83
2005060S12179 2005 19 SP MM RAE 2005-03-02 12:00:00 NR -12.0000 185.100 20 1000 nadi main 283 265 ______________ -1 -12.0000 -174.900 -1 20 1000 7 81
2005060S12179 2005 19 SP MM RAE 2005-03-02 15:00:00 NR -11.9348 185.435 main 265 234 _______I______ -1 -11.9348 -174.565 -1 20 1000 7 82
2005060S12179 2005 19 SP MM RAE 2005-03-02 18:00:00 NR -11.9000 185.800 20 1000 nadi main 234 204 ______________ -1 -11.9000 -174.200 -1 20 1000 8 89
2005060S12179 2005 19 SP MM RAE 2005-03-02 21:00:00 NR -11.9276 186.285 main 204 173 _______I______ -1 -11.9276 -173.715 -1 20 1000 10 96
2005060S12179 2005 19 SP MM RAE 2005-03-03 00:00:00 NR -12.0000 186.800 20 1000 nadi main 173 156 ______________ -1 -12.0000 -173.200 -1 20 1000 10 99
2005060S12179 2005 19 SP MM RAE 2005-03-03 03:00:00 NR -12.0850 187.273 main 156 145 _______I______ -1 -12.0850 -172.727 -1 20 1000 9 103
2005060S12179 2005 19 SP MM RAE 2005-03-03 06:00:00 NR -12.2000 187.700 20 1000 nadi main 145 138 ______________ -1 -12.2000 -172.300 -1 20 1000 8 106
2005060S12179 2005 19 SP MM RAE 2005-03-03 09:00:00 NR -12.3124 188.073 main 144 135 _______I______ -1 -12.3124 -171.927 -1 22 999 7 114
2005060S12179 2005 19 SP MM RAE 2005-03-03 12:00:00 NR -12.5000 188.400 25 999 nadi main 141 140 ______________ -1 -12.5000 -171.600 -1 25 999 8 128
2005060S12179 2005 19 SP MM RAE 2005-03-03 15:00:00 NR -12.8125 188.722 main 140 133 _______I______ -1 -12.8125 -171.278 -1 25 999 9 140
2005060S12179 2005 19 SP MM RAE 2005-03-03 18:00:00 NR -13.2000 189.000 25 999 nadi main 141 137 ______________ -1 -13.2000 -171.000 -1 25 999 9 154
2005060S12179 2005 19 SP MM RAE 2005-03-03 21:00:00 NR -13.5769 189.111 main 140 140 _______I______ -1 -13.5769 -170.889 -1 25 999 9 154
2005060S12179 2005 19 SP MM RAE 2005-03-04 00:00:00 NR -14.0000 189.400 25 999 nadi main 174 174 ______________ -1 -14.0000 -170.600 -1 25 999 15 130
2005060S12179 2005 19 SP MM RAE 2005-03-04 03:00:00 NR -14.5465 190.321 main 280 280 _______I______ -1 -14.5465 -169.679 -1 27 998 20 120
2005060S12179 2005 19 SP MM RAE 2005-03-04 06:00:00 NR -15.0000 191.200 30 998 nadi main 390 390 ______________ -1 -15.0000 -168.800 -1 30 998 11 121
2005060S12179 2005 19 SP MM RAE 2005-03-04 09:00:00 NR -15.1141 191.281 main 404 394 _______I______ -1 -15.1141 -168.719 -1 30 998 2 153
2005060S12179 2005 19 SP MM RAE 2005-03-04 12:00:00 NR -15.2000 191.300 30 998 nadi main 408 408 ______________ -1 -15.2000 -168.700 -1 30 998 8 122
2005060S12179 2005 19 SP MM RAE 2005-03-04 15:00:00 NR -15.5410 191.992 main 490 490 _______I______ -1 -15.5410 -168.008 -1 30 998 15 117
2005060S12179 2005 19 SP MM RAE 2005-03-04 18:00:00 TS -15.9000 192.700 30 998 nadi main 576 576 O___________O_ jtwc_sh SH212005 -15.7000 -167.300 DB 20 1004 -3 -16.0000 -167.300 -1 30 998 -15.7000 -167.300 TC 20 12 135
2005060S12179 2005 19 SP MM RAE 2005-03-04 21:00:00 TS -16.3685 192.852 main 620 620 P______I____P_ SH212005 -16.2524 -167.142 DB 22 1003 -3 -16.4845 -167.154 -1 30 997 -16.2524 -167.142 TC 22 10 164
2005060S12179 2005 19 SP MM RAE 2005-03-05 00:00:00 TS -16.8909 193.000 30 997 nadi main 656 656 O_______O___O_ jtwc_sh SH212005 -16.8000 -166.900 TD 25 1002 -1 1005 100 40 -17.0000 -167.100 -1 30 997 -17.0000 -167.200 30 997 -16.8000 -166.900 TC 25 12 154
2005060S12179 2005 19 SP MM RAE 2005-03-05 03:00:00 TS -17.4163 193.393 main 722 722 P______IP___P_ SH212005 -17.3426 -166.523 TD 27 1001 -1 -17.5077 -166.723 -1 30 997 -17.5279 -166.711 30 997 -17.3426 -166.523 TC 27 13 144
2005060S12179 2005 19 SP MM RAE 2005-03-05 06:00:00 TS -17.9467 193.807 30 997 nadi main 789 789 O_______O___O_ jtwc_sh SH212005 -17.9000 -166.100 TD 30 1000 -1 -18.0000 -166.300 -1 30 997 -18.0000 -166.300 30 997 -17.9000 -166.100 TC 30 12 147
2005060S12179 2005 19 SP MM RAE 2005-03-05 09:00:00 TS -18.4485 194.109 main 847 847 P______IP___P_ SH212005 -18.4924 -165.742 TD 30 1000 -1 -18.4046 -166.071 -1 30 997 -18.4047 -166.006 30 993 -18.4924 -165.742 TC 30 12 151
2005060S12179 2005 19 SP MM RAE 2005-03-05 12:00:00 TS -19.0000 194.425 30 997 nadi main 913 913 O_______O___O_ jtwc_sh SH212005 -19.1000 -165.400 TD 30 1000 -1 1004 120 45 -18.9000 -165.800 -1 30 997 -18.9000 -165.700 30 990 -19.1000 -165.400 TC 30 14 150
2005060S12179 2005 19 SP MM RAE 2005-03-05 15:00:00 TS -19.6866 194.856 main 1003 1003 P______IP___P_ SH212005 -19.6848 -165.064 TD 30 1000 -1 1004 120 45 -19.6628 -165.281 -1 32 996 -19.7140 -165.167 30 993 -19.6848 -165.064 TC 30 16 150
2005060S12179 2005 19 SP MM RAE 2005-03-05 18:00:00 TS -20.4000 195.300 35 995 nadi main 1086 1086 O_______O___O_ jtwc_sh SH212005 -20.3000 -164.700 TD 30 1000 -1 1004 120 45 -20.5000 -164.700 1 35 995 -20.5000 -164.700 30 997 -20.3000 -164.700 TC 30 16 151
2005060S12179 2005 19 SP MM RAE 2005-03-05 21:00:00 TS -21.0592 195.676 main 1169 1169 P______IO___P_ SH212005 -20.9924 -164.272 TD 32 998 -1 -21.2521 -164.249 1 37 992 -21.0000 -164.500 35 990 -20.9924 -164.272 TC 32 16 149
2005060S12179 2005 19 SP MM RAE 2005-03-06 00:00:00 TS -21.7500 196.175 40 990 nadi main 1253 1253 O_______O___O_ jtwc_sh SH212005 -21.7000 -163.800 TS 35 997 0 -21.9000 -163.800 1 40 990 -21.7000 -163.900 40 990 -21.7000 -163.800 TC 35 45 16 145
2005060S12179 2005 19 SP MM RAE 2005-03-06 03:00:00 TS -22.3983 196.676 main 1344 1344 P______IP___P_ SH212005 -22.3794 -163.352 TS 35 997 0 -22.4472 -163.288 1 37 992 -22.3872 -163.307 37 992 -22.3794 -163.352 TC 35 16 140
2005060S12179 2005 19 SP MM RAE 2005-03-06 06:00:00 TS -22.9500 197.250 35 995 nadi main 1427 1428 O_______O___O_ jtwc_sh SH212005 -23.0000 -162.800 TS 35 997 0 -22.8000 -162.700 1 35 995 -23.0000 -162.700 35 995 -23.0000 -162.800 TC 35 45 16 131
2005060S12179 2005 19 SP MM RAE 2005-03-06 09:00:00 TS -23.4167 197.954 main 1518 1518 P______IP___P_ SH212005 -23.5520 -162.082 TS 35 997 0 -22.9853 -161.993 1 32 996 -23.5776 -162.028 37 996 -23.5520 -162.082 TC 35 15 118
2005060S12179 2005 19 SP MM RAE 2005-03-06 12:00:00 TS -23.6571 198.714 30 997 nadi main 1593 1593 O_______O___O_ jtwc_sh SH212005 -24.0000 -161.200 TS 35 997 0 -22.9000 -161.300 -1 30 997 -23.9000 -161.400 40 997 -24.0000 -161.200 TC 35 13 94
2005060S12179 2005 19 SP MM RAE 2005-03-06 15:00:00 TS -23.5070 199.378 main 1632 1632 P______IP___P_ SH212005 -24.3342 -160.186 TS 32 998 -1 -22.3822 -160.753 -1 30 997 -23.8045 -160.927 40 997 -24.3342 -160.186 TC 32 12 63
2005060S12179 2005 19 SP MM RAE 2005-03-06 18:00:00 TS -23.1200 199.860 30 998 nadi main 1645 1633 O_______O___O_ jtwc_sh SH212005 -24.6000 -159.100 TD 30 1000 -1 -22.0000 -160.300 30 998 -23.5000 -160.500 40 998 -24.6000 -159.100 TC 30 40 9 44
2005060S12179 2005 19 SP MM RAE 2005-03-06 21:00:00 NR -22.8226 200.087 main 1641 1641 _______IP_____ SH212005 TD -1 -22.4250 -159.857 30 998 -23.2202 -159.970 40 998 TC 6 78
2005060S12179 2005 19 SP MM RAE 2005-03-07 00:00:00 NR -23.0000 200.500 30 998 nadi main 1687 1687 ________O_____ -1 -23.0000 -159.500 30 998 -23.0000 -159.500 40 998 7 108
2005060S12179 2005 19 SP MM RAE 2005-03-07 03:00:00 NR -23.0248 200.763 main 1713 1713 _______IP_____ -1 -23.1173 -159.262 30 998 -22.9322 -159.213 40 994 4 97
2005060S12179 2005 19 SP MM RAE 2005-03-07 06:00:00 NR -23.0500 200.950 30 998 nadi main 1721 1721 ________O_____ -1 -23.1000 -159.100 30 998 -23.0000 -159.000 40 990 4 111
2005060S12179 2005 19 SP MM RAE 2005-03-07 09:00:00 NR -23.1637 201.146 main 1751 1751 _______IP_____ -1 -23.1500 -158.935 27 998 -23.1773 -158.773 40 996 4 124
2005060S12179 2005 19 SP MM RAE 2005-03-07 12:00:00 NR -23.3000 201.350 25 999 nadi main 1782 1782 ________O_____ -1 -23.2000 -158.800 25 999 -23.4000 -158.500 40 1002 5 120
2005060S12179 2005 19 SP MM RAE 2005-03-07 15:00:00 NR -23.4038 201.596 main 1805 1805 _______IP_____ -1 -23.2500 -158.692 22 1000 -23.5576 -158.115 40 1002 5 113
2005060S12179 2005 19 SP MM RAE 2005-03-07 18:00:00 NR -23.5000 201.850 20 1002 nadi main 1829 1829 ________O_____ -1 -23.3000 -158.600 20 1002 -23.7000 -157.700 40 1002 5 114
2005060S12179 2005 19 SP MM RAE 2005-03-07 21:00:00 NR -23.5988 202.082 main 1860 1860 _______IP_____ -1 -23.3500 -158.503 20 1002 -23.8475 -157.333 40 1002 5 116
2005060S12179 2005 19 SP MM RAE 2005-03-08 00:00:00 NR -23.7000 202.300 20 1002 nadi main 1883 ________O_____ -1 -23.4000 -158.400 20 1002 -24.0000 -157.000 40 1002 4 117

Digital Typhoon Data and Search

About IBTrACS Database

This database is a web-friendly format of International Best Track Archive for Climate Stewardship (IBTrACS), a global best track data archive curated by NOAA dating back to 1842.

Updated: 2021-10-19